sensor_id;sensor_type;location;lat;lon;timestamp;P1;durP1;ratioP1;P2;durP2;ratioP2
75073;SDS011;63652;51.526;5.080;2023-07-13T00:01:11;4.38;;;1.88;;
75073;SDS011;63652;51.526;5.080;2023-07-13T00:03:38;4.78;;;1.70;;
75073;SDS011;63652;51.526;5.080;2023-07-13T00:06:06;9.70;;;2.20;;
75073;SDS011;63652;51.526;5.080;2023-07-13T00:08:32;5.40;;;1.95;;
75073;SDS011;63652;51.526;5.080;2023-07-13T00:10:58;6.80;;;1.65;;
75073;SDS011;63652;51.526;5.080;2023-07-13T00:13:24;3.65;;;1.67;;
75073;SDS011;63652;51.526;5.080;2023-07-13T00:15:50;3.65;;;1.75;;
75073;SDS011;63652;51.526;5.080;2023-07-13T00:18:15;8.10;;;1.70;;
75073;SDS011;63652;51.526;5.080;2023-07-13T00:20:41;4.70;;;1.70;;
75073;SDS011;63652;51.526;5.080;2023-07-13T00:23:06;7.10;;;1.50;;
75073;SDS011;63652;51.526;5.080;2023-07-13T00:25:32;2.97;;;1.52;;
75073;SDS011;63652;51.526;5.080;2023-07-13T00:27:57;4.40;;;2.15;;
75073;SDS011;63652;51.526;5.080;2023-07-13T00:30:23;6.22;;;1.58;;
75073;SDS011;63652;51.526;5.080;2023-07-13T00:32:48;7.05;;;1.80;;
75073;SDS011;63652;51.526;5.080;2023-07-13T00:35:14;4.28;;;1.45;;
75073;SDS011;63652;51.526;5.080;2023-07-13T00:37:40;4.75;;;1.50;;
75073;SDS011;63652;51.526;5.080;2023-07-13T00:40:05;5.07;;;1.48;;
75073;SDS011;63652;51.526;5.080;2023-07-13T00:42:32;6.40;;;2.15;;
75073;SDS011;63652;51.526;5.080;2023-07-13T00:47:38;7.55;;;1.83;;
75073;SDS011;63652;51.526;5.080;2023-07-13T00:50:08;4.47;;;1.42;;
75073;SDS011;63652;51.526;5.080;2023-07-13T00:52:38;7.22;;;2.35;;
75073;SDS011;63652;51.526;5.080;2023-07-13T00:55:06;4.93;;;1.55;;
75073;SDS011;63652;51.526;5.080;2023-07-13T00:57:32;4.32;;;1.90;;
75073;SDS011;63652;51.526;5.080;2023-07-13T00:59:58;3.05;;;1.33;;
75073;SDS011;63652;51.526;5.080;2023-07-13T01:02:25;6.78;;;1.65;;
75073;SDS011;63652;51.526;5.080;2023-07-13T01:04:52;4.93;;;1.58;;
75073;SDS011;63652;51.526;5.080;2023-07-13T01:07:17;4.97;;;1.70;;
75073;SDS011;63652;51.526;5.080;2023-07-13T01:09:44;4.55;;;2.17;;
75073;SDS011;63652;51.526;5.080;2023-07-13T01:12:10;5.53;;;1.98;;
75073;SDS011;63652;51.526;5.080;2023-07-13T01:14:36;6.20;;;2.03;;
75073;SDS011;63652;51.526;5.080;2023-07-13T01:17:01;6.85;;;2.03;;
75073;SDS011;63652;51.526;5.080;2023-07-13T01:22:12;7.18;;;1.77;;
75073;SDS011;63652;51.526;5.080;2023-07-13T01:24:42;3.33;;;1.92;;
75073;SDS011;63652;51.526;5.080;2023-07-13T01:27:10;6.43;;;2.00;;
75073;SDS011;63652;51.526;5.080;2023-07-13T01:29:37;6.05;;;2.05;;
75073;SDS011;63652;51.526;5.080;2023-07-13T01:34:36;5.50;;;1.90;;
75073;SDS011;63652;51.526;5.080;2023-07-13T01:37:02;7.53;;;2.05;;
75073;SDS011;63652;51.526;5.080;2023-07-13T01:39:29;6.22;;;2.05;;
75073;SDS011;63652;51.526;5.080;2023-07-13T01:41:55;5.70;;;1.95;;
75073;SDS011;63652;51.526;5.080;2023-07-13T01:44:20;3.67;;;1.83;;
75073;SDS011;63652;51.526;5.080;2023-07-13T01:46:45;5.53;;;1.95;;
75073;SDS011;63652;51.526;5.080;2023-07-13T01:49:11;5.20;;;2.28;;
75073;SDS011;63652;51.526;5.080;2023-07-13T01:51:37;5.63;;;1.98;;
75073;SDS011;63652;51.526;5.080;2023-07-13T01:54:03;4.63;;;2.00;;
75073;SDS011;63652;51.526;5.080;2023-07-13T01:56:28;4.10;;;1.92;;
75073;SDS011;63652;51.526;5.080;2023-07-13T01:58:53;8.20;;;2.20;;
75073;SDS011;63652;51.526;5.080;2023-07-13T02:01:19;8.65;;;3.08;;
75073;SDS011;63652;51.526;5.080;2023-07-13T02:03:44;5.63;;;2.25;;
75073;SDS011;63652;51.526;5.080;2023-07-13T02:06:12;7.55;;;2.10;;
75073;SDS011;63652;51.526;5.080;2023-07-13T02:08:37;5.50;;;1.90;;
75073;SDS011;63652;51.526;5.080;2023-07-13T02:11:03;4.93;;;2.20;;
75073;SDS011;63652;51.526;5.080;2023-07-13T02:13:28;5.18;;;2.20;;
75073;SDS011;63652;51.526;5.080;2023-07-13T02:15:54;6.28;;;2.72;;
75073;SDS011;63652;51.526;5.080;2023-07-13T02:18:19;7.75;;;2.22;;
75073;SDS011;63652;51.526;5.080;2023-07-13T02:20:45;7.75;;;2.33;;
75073;SDS011;63652;51.526;5.080;2023-07-13T02:23:10;6.38;;;2.30;;
75073;SDS011;63652;51.526;5.080;2023-07-13T02:25:36;7.10;;;2.22;;
75073;SDS011;63652;51.526;5.080;2023-07-13T02:28:02;4.47;;;2.25;;
75073;SDS011;63652;51.526;5.080;2023-07-13T02:30:28;5.97;;;2.53;;
75073;SDS011;63652;51.526;5.080;2023-07-13T02:32:55;7.80;;;2.47;;
75073;SDS011;63652;51.526;5.080;2023-07-13T02:35:21;4.80;;;2.08;;
75073;SDS011;63652;51.526;5.080;2023-07-13T02:37:46;7.35;;;2.08;;
75073;SDS011;63652;51.526;5.080;2023-07-13T02:40:12;6.18;;;1.73;;
75073;SDS011;63652;51.526;5.080;2023-07-13T02:42:38;6.82;;;2.15;;
75073;SDS011;63652;51.526;5.080;2023-07-13T02:45:03;12.38;;;2.95;;
75073;SDS011;63652;51.526;5.080;2023-07-13T02:47:29;6.00;;;2.28;;
75073;SDS011;63652;51.526;5.080;2023-07-13T02:49:54;8.38;;;2.05;;
75073;SDS011;63652;51.526;5.080;2023-07-13T02:52:20;5.22;;;2.08;;
75073;SDS011;63652;51.526;5.080;2023-07-13T02:54:45;4.40;;;2.08;;
75073;SDS011;63652;51.526;5.080;2023-07-13T02:57:10;5.47;;;1.88;;
75073;SDS011;63652;51.526;5.080;2023-07-13T02:59:36;3.67;;;2.13;;
75073;SDS011;63652;51.526;5.080;2023-07-13T03:02:02;8.20;;;2.53;;
75073;SDS011;63652;51.526;5.080;2023-07-13T03:04:28;5.68;;;2.20;;
75073;SDS011;63652;51.526;5.080;2023-07-13T03:06:54;7.82;;;3.00;;
75073;SDS011;63652;51.526;5.080;2023-07-13T03:09:22;14.13;;;2.80;;
75073;SDS011;63652;51.526;5.080;2023-07-13T03:11:48;7.75;;;2.65;;
75073;SDS011;63652;51.526;5.080;2023-07-13T03:14:14;5.28;;;2.30;;
75073;SDS011;63652;51.526;5.080;2023-07-13T03:16:39;6.28;;;2.10;;
75073;SDS011;63652;51.526;5.080;2023-07-13T03:19:05;7.28;;;2.33;;
75073;SDS011;63652;51.526;5.080;2023-07-13T03:21:30;6.45;;;2.25;;
75073;SDS011;63652;51.526;5.080;2023-07-13T03:23:56;6.05;;;2.65;;
75073;SDS011;63652;51.526;5.080;2023-07-13T03:26:22;6.05;;;2.63;;
75073;SDS011;63652;51.526;5.080;2023-07-13T03:28:47;5.93;;;2.70;;
75073;SDS011;63652;51.526;5.080;2023-07-13T03:31:15;9.65;;;2.33;;
75073;SDS011;63652;51.526;5.080;2023-07-13T03:33:42;8.73;;;2.20;;
75073;SDS011;63652;51.526;5.080;2023-07-13T03:36:10;7.65;;;2.85;;
75073;SDS011;63652;51.526;5.080;2023-07-13T03:38:38;5.85;;;2.40;;
75073;SDS011;63652;51.526;5.080;2023-07-13T03:41:03;6.80;;;2.70;;
75073;SDS011;63652;51.526;5.080;2023-07-13T03:43:29;9.18;;;2.58;;
75073;SDS011;63652;51.526;5.080;2023-07-13T03:45:54;7.78;;;2.67;;
75073;SDS011;63652;51.526;5.080;2023-07-13T03:48:20;13.23;;;2.83;;
75073;SDS011;63652;51.526;5.080;2023-07-13T03:50:46;6.25;;;2.70;;
75073;SDS011;63652;51.526;5.080;2023-07-13T03:53:12;6.68;;;2.50;;
75073;SDS011;63652;51.526;5.080;2023-07-13T03:55:37;7.50;;;2.65;;
75073;SDS011;63652;51.526;5.080;2023-07-13T04:01:00;6.30;;;2.45;;
75073;SDS011;63652;51.526;5.080;2023-07-13T04:03:28;8.27;;;2.80;;
75073;SDS011;63652;51.526;5.080;2023-07-13T04:05:55;9.82;;;2.78;;
75073;SDS011;63652;51.526;5.080;2023-07-13T04:08:25;10.15;;;2.80;;
75073;SDS011;63652;51.526;5.080;2023-07-13T04:10:52;12.13;;;3.03;;
75073;SDS011;63652;51.526;5.080;2023-07-13T04:13:17;12.70;;;2.78;;
75073;SDS011;63652;51.526;5.080;2023-07-13T04:15:42;9.75;;;2.97;;
75073;SDS011;63652;51.526;5.080;2023-07-13T04:18:08;9.30;;;3.35;;
75073;SDS011;63652;51.526;5.080;2023-07-13T04:20:34;6.43;;;2.42;;
75073;SDS011;63652;51.526;5.080;2023-07-13T04:22:59;9.07;;;3.03;;
75073;SDS011;63652;51.526;5.080;2023-07-13T04:25:25;11.50;;;3.55;;
75073;SDS011;63652;51.526;5.080;2023-07-13T04:27:52;11.57;;;2.85;;
75073;SDS011;63652;51.526;5.080;2023-07-13T04:30:17;9.60;;;3.00;;
75073;SDS011;63652;51.526;5.080;2023-07-13T04:32:43;12.95;;;2.83;;
75073;SDS011;63652;51.526;5.080;2023-07-13T04:35:08;6.07;;;2.47;;
75073;SDS011;63652;51.526;5.080;2023-07-13T04:37:34;9.07;;;2.75;;
75073;SDS011;63652;51.526;5.080;2023-07-13T04:40:00;11.32;;;3.58;;
75073;SDS011;63652;51.526;5.080;2023-07-13T04:42:26;11.25;;;3.40;;
75073;SDS011;63652;51.526;5.080;2023-07-13T04:44:51;9.18;;;3.38;;
75073;SDS011;63652;51.526;5.080;2023-07-13T04:47:17;8.77;;;3.50;;
75073;SDS011;63652;51.526;5.080;2023-07-13T04:49:44;8.07;;;3.30;;
75073;SDS011;63652;51.526;5.080;2023-07-13T04:52:10;12.18;;;3.10;;
75073;SDS011;63652;51.526;5.080;2023-07-13T04:54:35;11.35;;;4.28;;
75073;SDS011;63652;51.526;5.080;2023-07-13T04:57:02;7.93;;;3.47;;
75073;SDS011;63652;51.526;5.080;2023-07-13T04:59:29;14.73;;;3.28;;
75073;SDS011;63652;51.526;5.080;2023-07-13T05:01:55;10.43;;;3.63;;
75073;SDS011;63652;51.526;5.080;2023-07-13T05:04:20;11.88;;;3.88;;
75073;SDS011;63652;51.526;5.080;2023-07-13T05:06:45;6.78;;;3.22;;
75073;SDS011;63652;51.526;5.080;2023-07-13T05:09:11;17.55;;;4.28;;
75073;SDS011;63652;51.526;5.080;2023-07-13T05:11:37;12.00;;;4.57;;
75073;SDS011;63652;51.526;5.080;2023-07-13T05:14:03;14.65;;;4.15;;
75073;SDS011;63652;51.526;5.080;2023-07-13T05:16:28;13.38;;;4.90;;
75073;SDS011;63652;51.526;5.080;2023-07-13T05:18:54;18.00;;;5.53;;
75073;SDS011;63652;51.526;5.080;2023-07-13T05:21:19;15.05;;;4.75;;
75073;SDS011;63652;51.526;5.080;2023-07-13T05:23:45;13.95;;;5.00;;
75073;SDS011;63652;51.526;5.080;2023-07-13T05:26:10;8.82;;;4.57;;
75073;SDS011;63652;51.526;5.080;2023-07-13T05:28:36;11.57;;;5.65;;
75073;SDS011;63652;51.526;5.080;2023-07-13T05:31:02;15.00;;;6.07;;
75073;SDS011;63652;51.526;5.080;2023-07-13T05:33:28;16.88;;;6.10;;
75073;SDS011;63652;51.526;5.080;2023-07-13T05:35:54;16.55;;;5.25;;
75073;SDS011;63652;51.526;5.080;2023-07-13T05:38:19;11.60;;;6.05;;
75073;SDS011;63652;51.526;5.080;2023-07-13T05:40:45;14.40;;;6.00;;
75073;SDS011;63652;51.526;5.080;2023-07-13T05:43:11;15.20;;;5.82;;
75073;SDS011;63652;51.526;5.080;2023-07-13T05:45:37;14.82;;;6.63;;
75073;SDS011;63652;51.526;5.080;2023-07-13T05:48:03;28.60;;;7.18;;
75073;SDS011;63652;51.526;5.080;2023-07-13T05:50:28;17.02;;;7.05;;
75073;SDS011;63652;51.526;5.080;2023-07-13T05:52:54;19.90;;;8.57;;
75073;SDS011;63652;51.526;5.080;2023-07-13T05:55:19;20.40;;;6.97;;
75073;SDS011;63652;51.526;5.080;2023-07-13T05:57:48;19.17;;;6.93;;
75073;SDS011;63652;51.526;5.080;2023-07-13T06:00:14;21.27;;;7.70;;
75073;SDS011;63652;51.526;5.080;2023-07-13T06:02:40;19.48;;;8.23;;
75073;SDS011;63652;51.526;5.080;2023-07-13T06:05:05;20.00;;;7.40;;
75073;SDS011;63652;51.526;5.080;2023-07-13T06:07:31;17.55;;;6.38;;
75073;SDS011;63652;51.526;5.080;2023-07-13T06:09:56;16.38;;;6.90;;
75073;SDS011;63652;51.526;5.080;2023-07-13T06:12:24;16.02;;;6.97;;
75073;SDS011;63652;51.526;5.080;2023-07-13T06:14:50;16.20;;;6.72;;
75073;SDS011;63652;51.526;5.080;2023-07-13T06:17:15;17.67;;;8.52;;
75073;SDS011;63652;51.526;5.080;2023-07-13T06:19:40;18.17;;;7.18;;
75073;SDS011;63652;51.526;5.080;2023-07-13T06:22:06;21.35;;;8.75;;
75073;SDS011;63652;51.526;5.080;2023-07-13T06:24:31;19.13;;;7.78;;
75073;SDS011;63652;51.526;5.080;2023-07-13T06:26:57;18.30;;;8.75;;
75073;SDS011;63652;51.526;5.080;2023-07-13T06:29:22;18.27;;;7.45;;
75073;SDS011;63652;51.526;5.080;2023-07-13T06:31:47;17.55;;;6.80;;
75073;SDS011;63652;51.526;5.080;2023-07-13T06:34:13;13.80;;;7.38;;
75073;SDS011;63652;51.526;5.080;2023-07-13T06:36:38;15.80;;;6.95;;
75073;SDS011;63652;51.526;5.080;2023-07-13T06:39:04;16.95;;;6.70;;
75073;SDS011;63652;51.526;5.080;2023-07-13T06:41:29;20.48;;;7.85;;
75073;SDS011;63652;51.526;5.080;2023-07-13T06:43:55;23.30;;;8.70;;
75073;SDS011;63652;51.526;5.080;2023-07-13T06:46:21;18.63;;;7.03;;
75073;SDS011;63652;51.526;5.080;2023-07-13T06:48:47;14.35;;;6.30;;
75073;SDS011;63652;51.526;5.080;2023-07-13T06:51:13;23.88;;;7.72;;
75073;SDS011;63652;51.526;5.080;2023-07-13T06:53:38;16.92;;;7.53;;
75073;SDS011;63652;51.526;5.080;2023-07-13T06:56:03;18.55;;;6.70;;
75073;SDS011;63652;51.526;5.080;2023-07-13T06:58:29;15.02;;;7.22;;
75073;SDS011;63652;51.526;5.080;2023-07-13T07:00:54;18.63;;;7.82;;
75073;SDS011;63652;51.526;5.080;2023-07-13T07:03:20;16.90;;;6.45;;
75073;SDS011;63652;51.526;5.080;2023-07-13T07:05:45;22.20;;;8.50;;
75073;SDS011;63652;51.526;5.080;2023-07-13T07:08:11;13.20;;;7.32;;
75073;SDS011;63652;51.526;5.080;2023-07-13T07:10:36;21.58;;;7.22;;
75073;SDS011;63652;51.526;5.080;2023-07-13T07:13:02;19.25;;;7.68;;
75073;SDS011;63652;51.526;5.080;2023-07-13T07:15:28;13.02;;;7.10;;
75073;SDS011;63652;51.526;5.080;2023-07-13T07:17:54;13.13;;;7.13;;
75073;SDS011;63652;51.526;5.080;2023-07-13T07:20:19;16.27;;;7.05;;
75073;SDS011;63652;51.526;5.080;2023-07-13T07:22:45;15.52;;;7.38;;
75073;SDS011;63652;51.526;5.080;2023-07-13T07:25:11;18.52;;;6.82;;
75073;SDS011;63652;51.526;5.080;2023-07-13T07:27:37;21.52;;;6.85;;
75073;SDS011;63652;51.526;5.080;2023-07-13T07:30:02;13.23;;;7.05;;
75073;SDS011;63652;51.526;5.080;2023-07-13T07:32:29;14.43;;;7.25;;
75073;SDS011;63652;51.526;5.080;2023-07-13T07:34:55;21.50;;;7.97;;
75073;SDS011;63652;51.526;5.080;2023-07-13T07:37:21;13.90;;;6.20;;
75073;SDS011;63652;51.526;5.080;2023-07-13T07:39:46;17.27;;;7.15;;
75073;SDS011;63652;51.526;5.080;2023-07-13T07:42:12;12.85;;;6.90;;
75073;SDS011;63652;51.526;5.080;2023-07-13T07:44:38;13.05;;;7.18;;
75073;SDS011;63652;51.526;5.080;2023-07-13T07:47:03;13.55;;;6.88;;
75073;SDS011;63652;51.526;5.080;2023-07-13T07:49:29;16.73;;;7.32;;
75073;SDS011;63652;51.526;5.080;2023-07-13T07:51:54;11.93;;;6.72;;
75073;SDS011;63652;51.526;5.080;2023-07-13T07:54:19;15.35;;;6.95;;
75073;SDS011;63652;51.526;5.080;2023-07-13T07:56:45;12.57;;;6.70;;
75073;SDS011;63652;51.526;5.080;2023-07-13T07:59:11;16.15;;;6.43;;
75073;SDS011;63652;51.526;5.080;2023-07-13T08:01:36;15.57;;;6.53;;
75073;SDS011;63652;51.526;5.080;2023-07-13T08:04:02;17.17;;;7.28;;
75073;SDS011;63652;51.526;5.080;2023-07-13T08:06:27;10.23;;;6.68;;
75073;SDS011;63652;51.526;5.080;2023-07-13T08:08:53;12.00;;;6.53;;
75073;SDS011;63652;51.526;5.080;2023-07-13T08:11:20;13.30;;;6.80;;
75073;SDS011;63652;51.526;5.080;2023-07-13T08:13:46;10.25;;;6.40;;
75073;SDS011;63652;51.526;5.080;2023-07-13T08:16:11;14.52;;;7.30;;
75073;SDS011;63652;51.526;5.080;2023-07-13T08:18:37;14.38;;;6.78;;
75073;SDS011;63652;51.526;5.080;2023-07-13T08:21:03;14.02;;;6.70;;
75073;SDS011;63652;51.526;5.080;2023-07-13T08:23:32;14.23;;;6.95;;
75073;SDS011;63652;51.526;5.080;2023-07-13T08:25:58;10.80;;;6.75;;
75073;SDS011;63652;51.526;5.080;2023-07-13T08:28:27;10.88;;;7.25;;
75073;SDS011;63652;51.526;5.080;2023-07-13T08:30:53;10.52;;;6.47;;
75073;SDS011;63652;51.526;5.080;2023-07-13T08:33:19;16.33;;;6.25;;
75073;SDS011;63652;51.526;5.080;2023-07-13T08:35:46;14.15;;;7.82;;
75073;SDS011;63652;51.526;5.080;2023-07-13T08:38:12;12.57;;;7.78;;
75073;SDS011;63652;51.526;5.080;2023-07-13T08:40:38;10.23;;;6.72;;
75073;SDS011;63652;51.526;5.080;2023-07-13T08:43:04;12.27;;;6.15;;
75073;SDS011;63652;51.526;5.080;2023-07-13T08:48:32;14.55;;;6.38;;
75073;SDS011;63652;51.526;5.080;2023-07-13T08:51:04;14.00;;;7.22;;
75073;SDS011;63652;51.526;5.080;2023-07-13T08:53:40;15.77;;;7.72;;
75073;SDS011;63652;51.526;5.080;2023-07-13T08:56:11;11.40;;;6.95;;
75073;SDS011;63652;51.526;5.080;2023-07-13T08:58:42;10.82;;;6.57;;
75073;SDS011;63652;51.526;5.080;2023-07-13T09:04:05;10.75;;;7.45;;
75073;SDS011;63652;51.526;5.080;2023-07-13T09:12:25;13.40;;;6.78;;
75073;SDS011;63652;51.526;5.080;2023-07-13T09:14:58;15.10;;;7.05;;
75073;SDS011;63652;51.526;5.080;2023-07-13T09:17:29;10.45;;;6.85;;
75073;SDS011;63652;51.526;5.080;2023-07-13T09:20:11;10.27;;;5.50;;
75073;SDS011;63652;51.526;5.080;2023-07-13T09:22:42;10.23;;;5.68;;
75073;SDS011;63652;51.526;5.080;2023-07-13T09:25:29;10.40;;;6.03;;
75073;SDS011;63652;51.526;5.080;2023-07-13T09:27:57;9.98;;;6.47;;
75073;SDS011;63652;51.526;5.080;2023-07-13T09:33:19;11.15;;;4.90;;
75073;SDS011;63652;51.526;5.080;2023-07-13T09:35:45;8.75;;;5.07;;
75073;SDS011;63652;51.526;5.080;2023-07-13T09:38:12;10.38;;;5.95;;
75073;SDS011;63652;51.526;5.080;2023-07-13T09:40:59;8.77;;;5.60;;
75073;SDS011;63652;51.526;5.080;2023-07-13T09:43:24;9.98;;;5.57;;
75073;SDS011;63652;51.526;5.080;2023-07-13T09:45:50;8.00;;;5.45;;
75073;SDS011;63652;51.526;5.080;2023-07-13T09:48:16;8.80;;;5.15;;
75073;SDS011;63652;51.526;5.080;2023-07-13T09:50:42;7.95;;;5.60;;
75073;SDS011;63652;51.526;5.080;2023-07-13T09:53:14;10.55;;;5.00;;
75073;SDS011;63652;51.526;5.080;2023-07-13T09:55:41;8.73;;;5.38;;
75073;SDS011;63652;51.526;5.080;2023-07-13T10:00:40;12.77;;;6.20;;
75073;SDS011;63652;51.526;5.080;2023-07-13T10:05:46;14.30;;;5.80;;
75073;SDS011;63652;51.526;5.080;2023-07-13T10:08:25;11.43;;;6.22;;
75073;SDS011;63652;51.526;5.080;2023-07-13T10:10:59;12.43;;;7.63;;
75073;SDS011;63652;51.526;5.080;2023-07-13T10:13:26;10.95;;;7.85;;
75073;SDS011;63652;51.526;5.080;2023-07-13T10:15:54;11.88;;;6.10;;
75073;SDS011;63652;51.526;5.080;2023-07-13T10:18:21;8.98;;;6.80;;
75073;SDS011;63652;51.526;5.080;2023-07-13T10:20:47;8.55;;;5.70;;
75073;SDS011;63652;51.526;5.080;2023-07-13T10:23:17;12.85;;;5.63;;
75073;SDS011;63652;51.526;5.080;2023-07-13T10:25:47;8.38;;;5.22;;
75073;SDS011;63652;51.526;5.080;2023-07-13T10:30:44;8.65;;;5.70;;
75073;SDS011;63652;51.526;5.080;2023-07-13T10:33:12;14.07;;;4.40;;
75073;SDS011;63652;51.526;5.080;2023-07-13T10:35:38;8.27;;;4.60;;
75073;SDS011;63652;51.526;5.080;2023-07-13T10:38:27;5.72;;;4.25;;
75073;SDS011;63652;51.526;5.080;2023-07-13T10:40:57;12.88;;;4.63;;
75073;SDS011;63652;51.526;5.080;2023-07-13T10:43:38;9.63;;;4.75;;
75073;SDS011;63652;51.526;5.080;2023-07-13T10:46:06;8.88;;;4.78;;
75073;SDS011;63652;51.526;5.080;2023-07-13T10:48:33;8.15;;;4.45;;
75073;SDS011;63652;51.526;5.080;2023-07-13T10:50:59;13.00;;;5.00;;
75073;SDS011;63652;51.526;5.080;2023-07-13T10:53:35;10.55;;;4.72;;
75073;SDS011;63652;51.526;5.080;2023-07-13T10:56:03;8.27;;;4.18;;
75073;SDS011;63652;51.526;5.080;2023-07-13T10:58:40;7.63;;;4.25;;
75073;SDS011;63652;51.526;5.080;2023-07-13T11:01:11;7.65;;;3.30;;
75073;SDS011;63652;51.526;5.080;2023-07-13T11:09:03;8.15;;;2.38;;
75073;SDS011;63652;51.526;5.080;2023-07-13T11:11:47;4.72;;;1.90;;
75073;SDS011;63652;51.526;5.080;2023-07-13T11:14:27;4.78;;;2.08;;
75073;SDS011;63652;51.526;5.080;2023-07-13T11:17:24;8.07;;;2.65;;
75073;SDS011;63652;51.526;5.080;2023-07-13T11:20:10;5.88;;;2.72;;
75073;SDS011;63652;51.526;5.080;2023-07-13T11:25:28;4.30;;;1.90;;
75073;SDS011;63652;51.526;5.080;2023-07-13T11:30:40;6.55;;;2.08;;
75073;SDS011;63652;51.526;5.080;2023-07-13T11:33:15;4.45;;;1.77;;
75073;SDS011;63652;51.526;5.080;2023-07-13T11:36:27;4.05;;;1.60;;
75073;SDS011;63652;51.526;5.080;2023-07-13T11:38:36;3.67;;;1.63;;
75073;SDS011;63652;51.526;5.080;2023-07-13T11:41:07;4.28;;;1.85;;
75073;SDS011;63652;51.526;5.080;2023-07-13T11:43:55;4.90;;;2.35;;
75073;SDS011;63652;51.526;5.080;2023-07-13T11:46:28;5.63;;;2.05;;
75073;SDS011;63652;51.526;5.080;2023-07-13T11:48:53;5.13;;;2.30;;
75073;SDS011;63652;51.526;5.080;2023-07-13T11:51:30;8.63;;;2.00;;
75073;SDS011;63652;51.526;5.080;2023-07-13T11:53:57;5.13;;;1.98;;
75073;SDS011;63652;51.526;5.080;2023-07-13T11:56:28;3.58;;;1.73;;
75073;SDS011;63652;51.526;5.080;2023-07-13T11:58:54;4.80;;;1.73;;
75073;SDS011;63652;51.526;5.080;2023-07-13T12:01:23;4.63;;;2.00;;
75073;SDS011;63652;51.526;5.080;2023-07-13T12:04:03;6.57;;;1.90;;
75073;SDS011;63652;51.526;5.080;2023-07-13T12:06:33;3.95;;;2.28;;
75073;SDS011;63652;51.526;5.080;2023-07-13T12:09:02;7.15;;;2.28;;
75073;SDS011;63652;51.526;5.080;2023-07-13T12:11:35;6.57;;;1.65;;
75073;SDS011;63652;51.526;5.080;2023-07-13T12:14:02;4.53;;;1.50;;
75073;SDS011;63652;51.526;5.080;2023-07-13T12:16:33;3.05;;;1.80;;
75073;SDS011;63652;51.526;5.080;2023-07-13T12:18:59;3.50;;;1.40;;
75073;SDS011;63652;51.526;5.080;2023-07-13T12:21:28;3.95;;;1.88;;
75073;SDS011;63652;51.526;5.080;2023-07-13T12:23:56;4.03;;;1.50;;
75073;SDS011;63652;51.526;5.080;2023-07-13T12:26:21;4.97;;;2.20;;
75073;SDS011;63652;51.526;5.080;2023-07-13T12:28:48;3.58;;;1.95;;
75073;SDS011;63652;51.526;5.080;2023-07-13T12:31:25;4.47;;;1.38;;
75073;SDS011;63652;51.526;5.080;2023-07-13T12:34:09;4.10;;;1.40;;
75073;SDS011;63652;51.526;5.080;2023-07-13T12:36:49;7.93;;;1.88;;
75073;SDS011;63652;51.526;5.080;2023-07-13T12:41:43;4.68;;;1.98;;
75073;SDS011;63652;51.526;5.080;2023-07-13T12:44:27;3.97;;;1.48;;
75073;SDS011;63652;51.526;5.080;2023-07-13T12:47:14;3.95;;;1.73;;
75073;SDS011;63652;51.526;5.080;2023-07-13T12:49:40;7.20;;;2.17;;
75073;SDS011;63652;51.526;5.080;2023-07-13T12:52:14;4.00;;;1.52;;
75073;SDS011;63652;51.526;5.080;2023-07-13T12:54:41;8.13;;;2.65;;
75073;SDS011;63652;51.526;5.080;2023-07-13T12:57:08;6.32;;;2.08;;
75073;SDS011;63652;51.526;5.080;2023-07-13T12:59:40;5.95;;;2.40;;
75073;SDS011;63652;51.526;5.080;2023-07-13T13:02:40;4.53;;;2.20;;
75073;SDS011;63652;51.526;5.080;2023-07-13T13:05:00;5.65;;;2.40;;
75073;SDS011;63652;51.526;5.080;2023-07-13T13:07:25;5.53;;;2.10;;
75073;SDS011;63652;51.526;5.080;2023-07-13T13:09:51;5.00;;;1.80;;
75073;SDS011;63652;51.526;5.080;2023-07-13T13:12:18;5.05;;;1.85;;
75073;SDS011;63652;51.526;5.080;2023-07-13T13:14:44;3.22;;;1.45;;
75073;SDS011;63652;51.526;5.080;2023-07-13T13:17:20;3.85;;;1.20;;
75073;SDS011;63652;51.526;5.080;2023-07-13T13:19:49;3.20;;;1.75;;
75073;SDS011;63652;51.526;5.080;2023-07-13T13:22:15;3.88;;;2.17;;
75073;SDS011;63652;51.526;5.080;2023-07-13T13:24:40;4.00;;;1.50;;
75073;SDS011;63652;51.526;5.080;2023-07-13T13:27:09;4.60;;;1.40;;
75073;SDS011;63652;51.526;5.080;2023-07-13T13:29:40;2.83;;;1.48;;
75073;SDS011;63652;51.526;5.080;2023-07-13T13:32:09;3.97;;;1.80;;
75073;SDS011;63652;51.526;5.080;2023-07-13T13:34:36;4.60;;;2.42;;
75073;SDS011;63652;51.526;5.080;2023-07-13T13:37:02;6.38;;;1.90;;
75073;SDS011;63652;51.526;5.080;2023-07-13T13:41:54;5.15;;;2.28;;
75073;SDS011;63652;51.526;5.080;2023-07-13T13:44:20;6.25;;;1.70;;
75073;SDS011;63652;51.526;5.080;2023-07-13T13:46:47;4.65;;;1.60;;
75073;SDS011;63652;51.526;5.080;2023-07-13T13:49:15;3.50;;;1.58;;
75073;SDS011;63652;51.526;5.080;2023-07-13T13:51:42;6.20;;;2.05;;
75073;SDS011;63652;51.526;5.080;2023-07-13T13:54:12;7.25;;;1.88;;
75073;SDS011;63652;51.526;5.080;2023-07-13T13:56:38;3.63;;;1.85;;
75073;SDS011;63652;51.526;5.080;2023-07-13T13:59:04;4.28;;;2.75;;
75073;SDS011;63652;51.526;5.080;2023-07-13T14:01:29;3.30;;;1.40;;
75073;SDS011;63652;51.526;5.080;2023-07-13T14:03:59;5.20;;;1.65;;
75073;SDS011;63652;51.526;5.080;2023-07-13T14:06:25;3.40;;;1.75;;
75073;SDS011;63652;51.526;5.080;2023-07-13T14:08:50;4.03;;;2.00;;
75073;SDS011;63652;51.526;5.080;2023-07-13T14:11:16;3.55;;;1.65;;
75073;SDS011;63652;51.526;5.080;2023-07-13T14:13:56;5.30;;;1.92;;
75073;SDS011;63652;51.526;5.080;2023-07-13T14:16:25;4.45;;;1.65;;
75073;SDS011;63652;51.526;5.080;2023-07-13T14:18:53;3.17;;;1.80;;
75073;SDS011;63652;51.526;5.080;2023-07-13T14:21:19;4.15;;;1.42;;
75073;SDS011;63652;51.526;5.080;2023-07-13T14:23:46;3.75;;;1.77;;
75073;SDS011;63652;51.526;5.080;2023-07-13T14:26:13;4.93;;;1.70;;
75073;SDS011;63652;51.526;5.080;2023-07-13T14:28:58;4.20;;;1.40;;
75073;SDS011;63652;51.526;5.080;2023-07-13T14:31:24;5.88;;;1.55;;
75073;SDS011;63652;51.526;5.080;2023-07-13T14:33:51;3.97;;;1.55;;
75073;SDS011;63652;51.526;5.080;2023-07-13T14:36:21;5.00;;;1.75;;
75073;SDS011;63652;51.526;5.080;2023-07-13T14:38:51;2.47;;;1.23;;
75073;SDS011;63652;51.526;5.080;2023-07-13T14:41:16;2.63;;;1.40;;
75073;SDS011;63652;51.526;5.080;2023-07-13T14:43:42;4.03;;;1.58;;
75073;SDS011;63652;51.526;5.080;2023-07-13T14:46:08;5.00;;;1.65;;
75073;SDS011;63652;51.526;5.080;2023-07-13T14:48:43;7.82;;;1.85;;
75073;SDS011;63652;51.526;5.080;2023-07-13T14:51:09;3.95;;;1.88;;
75073;SDS011;63652;51.526;5.080;2023-07-13T14:53:35;4.68;;;1.67;;
75073;SDS011;63652;51.526;5.080;2023-07-13T14:56:08;3.47;;;1.92;;
75073;SDS011;63652;51.526;5.080;2023-07-13T14:58:35;4.93;;;2.00;;
75073;SDS011;63652;51.526;5.080;2023-07-13T15:01:00;4.93;;;1.70;;
75073;SDS011;63652;51.526;5.080;2023-07-13T15:03:26;5.07;;;2.30;;
75073;SDS011;63652;51.526;5.080;2023-07-13T15:05:51;6.85;;;2.70;;
75073;SDS011;63652;51.526;5.080;2023-07-13T15:08:18;3.75;;;2.17;;
75073;SDS011;63652;51.526;5.080;2023-07-13T15:10:43;4.40;;;1.98;;
75073;SDS011;63652;51.526;5.080;2023-07-13T15:13:17;4.72;;;2.53;;
75073;SDS011;63652;51.526;5.080;2023-07-13T15:15:48;5.15;;;2.92;;
75073;SDS011;63652;51.526;5.080;2023-07-13T15:18:15;4.65;;;2.00;;
75073;SDS011;63652;51.526;5.080;2023-07-13T15:20:43;4.70;;;2.50;;
75073;SDS011;63652;51.526;5.080;2023-07-13T15:23:10;2.83;;;2.00;;
75073;SDS011;63652;51.526;5.080;2023-07-13T15:25:36;3.40;;;2.50;;
75073;SDS011;63652;51.526;5.080;2023-07-13T15:28:02;5.30;;;1.80;;
75073;SDS011;63652;51.526;5.080;2023-07-13T15:30:31;4.85;;;2.35;;
75073;SDS011;63652;51.526;5.080;2023-07-13T15:33:05;5.20;;;1.95;;
75073;SDS011;63652;51.526;5.080;2023-07-13T15:35:36;3.80;;;1.90;;